00:39
Airports
History
Links
Donate
Help keep this website running!
PayPal
Bitcoin
Information on this page is community maintained and may be outdated or inaccurate and is intended for reference only or PC simulator navigating.
Always use approved charts for navigating.
CNC7
Nipissing on 654
Nipissing on 654 (CNC7)
Nipissing, Ontario, Canada
4
Lat/Lng:46° 6' 39.41" N / 79° 29' 34.05" W
46.110948 / -79.492793
Elevation:690'ft 210mMSL
ID / ICAO:CNC7
Runways:1
Longest:(17L-35R) 418.4m 1,373ft Grass
Distance To
Airport ID:
Nearby VORs <50NM
Nearby NDBs
Nearby WeatherUpdated 07-25-17 00:00 GMT
Nearby weather at CYYB, North Bay located 17.8 nautical miles from CNC7
Altimeter: 30.02
Visibility: 30.0 statute miles
Wind: 5 knots (360°)
Temp: 15°c 59°f
Humidity: 87.8%

METAR: CYYB 250000Z 36005KT 30SM FEW030 BKN060 OVC092 15/13 A3002 RMK SC2SC3AC3 SLP171 DENSITY ALT 1400FT

(Powered by phpweather)
Runway 17L / 35R
Dimensions:418.4 x 18m 1373' x 59'ft
Surface:Grass
Runway 17L [A]Runway 35R [B]
Heading:156°TH 336°TH
Lat:
Lng:
46° 6' 45.65"N
79° 29' 37.92"W
46° 6' 33.17"N
79° 29' 30.19"W
User Notes and Comments
Google Map
Nearby Airports
4 Trout Creek Chalet 10.5 NM
CTC1 SSE 154°
4 Corbeil Bertha Rd 12.6 NM
CB01 NE 50°
(C) North Bay 17.8 NM
CYYB (WX) N 10°
(C) South River-Sundridge 21.1 NM
CPE6 SSE 160°
4 Arnstein 24.5 NM
CNR9 WSW 238°
(C) Mattawa (Earl Lake) 37.9 NM
CMA2 ENE 69°
4 Emsdale 39.4 NM
CNA4 S 169°
VFR Chart
Flight Planning at SkyVector.com